CYLW/YLW METAR and TAF weather

Enter ICAO airport designator
Station Type Date Time Source
CYLW METAR 2022/11/30 18:35 UTC NOAA

CYLW 301835Z AUTO 11002KT 6SM -SN OVC039 M04/M05 A2947 RMK SLP005


Station Type Date Time Source
CYLW Decoded METAR 2022/11/30 18:35 UTC NOAA

Kelowna Airport, Canada (CYLW) 49-58N 119-23W 430M
Nov 30, 2022 - 01:35 PM EST / 2022.11.30 1835 UTC
Wind: from the ESE (110 degrees) at 2 MPH (2 KT):0
Visibility: 6 mile(s):0
Sky conditions: overcast
Weather: light snow
Temperature: 24 F (-4 C)
Dew Point: 23 F (-5 C)
Relative Humidity: 92%
Pressure (altimeter): 29.47 in. Hg (997 hPa)
ob: CYLW 301835Z AUTO 11002KT 6SM -SN OVC039 M04/M05 A2947 RMK SLP005
cycle: 18

Station Type Date Time Source
CYLW TAF 2022/11/30 13:42 UTC NOAA

TAF CYLW 301240Z 3013/0101 VRB03KT 2SM -SN SCT008 OVC020
TEMPO 3013/3020 P6SM -SN OVC040
FM302000 VRB03KT P6SM SCT030
RMK FCST BASED ON AUTO OBS. NXT FCST BY 301900Z

Example: see airport list